Time;durP1;ratioP1;P1;durP2;ratioP2;P2;SDS_P1;SDS_P2;PMS_P1;PMS_P2;Temp;Humidity;BMP_temperature;BMP_pressure;BME280_temperature;BME280_humidity;BME280_pressure;Samples;Min_cycle;Max_cycle;Signal;HPM_P1;HPM_P2
2023/10/28 00:00:37;;;;;;;16.52;8.10;;;;;;;8.85;100.00;99199.44;4562070;27;20055;-88
2023/10/28 00:03:03;;;;;;;20.10;8.13;;;;;;;8.99;100.00;99222.06;4915052;29;20028;-89
2023/10/28 00:05:31;;;;;;;17.60;7.70;;;;;;;8.97;100.00;99211.66;4900080;29;20066;-91
2023/10/28 00:07:56;;;;;;;19.33;6.97;;;;;;;9.02;100.00;99216.25;4885855;29;20055;-91
2023/10/28 00:10:22;;;;;;;17.85;6.80;;;;;;;8.95;100.00;99204.91;4901757;29;20107;-90
2023/10/28 00:12:49;;;;;;;19.80;7.10;;;;;;;8.86;100.00;99193.88;4901498;29;20066;-90
2023/10/28 00:15:18;;;;;;;23.60;7.82;;;;;;;9.11;100.00;99230.78;4902056;29;20532;-92
2023/10/28 00:17:46;;;;;;;18.27;6.72;;;;;;;9.12;100.00;99227.06;4918571;29;20036;-91
2023/10/28 00:20:13;;;;;;;13.50;6.30;;;;;;;8.85;100.00;99186.94;4898338;29;20119;-90
2023/10/28 00:22:38;;;;;;;15.27;6.38;;;;;;;9.18;100.00;99218.06;4882733;29;20545;-91
2023/10/28 00:25:05;;;;;;;18.00;6.20;;;;;;;9.13;100.00;99209.19;4882649;29;20124;-90
2023/10/28 00:27:33;;;;;;;16.63;6.25;;;;;;;8.92;100.00;99184.91;4884022;29;20072;-88
2023/10/28 00:30:00;;;;;;;15.18;6.68;;;;;;;9.12;100.00;99204.91;4884442;29;20529;-92
2023/10/28 00:32:25;;;;;;;15.98;6.45;;;;;;;9.10;100.00;99204.34;4900376;29;20458;-90
2023/10/28 00:34:51;;;;;;;18.17;7.10;;;;;;;9.14;100.00;99208.16;4899602;29;20077;-91
2023/10/28 00:37:17;;;;;;;20.60;6.47;;;;;;;9.26;100.00;99222.22;4885869;29;20035;-94
2023/10/28 00:39:46;;;;;;;16.45;6.70;;;;;;;9.08;100.00;99195.81;4884306;29;20069;-92
2023/10/28 00:42:13;;;;;;;16.17;6.70;;;;;;;9.26;100.00;99216.88;4900808;29;20028;-93
2023/10/28 00:44:39;;;;;;;17.30;5.40;;;;;;;9.36;100.00;99232.19;4903083;29;20402;-93
2023/10/28 00:47:05;;;;;;;15.30;6.13;;;;;;;9.28;100.00;99226.25;4900996;29;20107;-93
2023/10/28 00:49:31;;;;;;;17.35;6.10;;;;;;;9.39;100.00;99239.72;4886684;29;20123;-93
2023/10/28 00:51:58;;;;;;;18.38;6.55;;;;;;;9.39;100.00;99237.03;4886463;29;20036;-91
2023/10/28 00:54:24;;;;;;;11.45;5.60;;;;;;;9.44;100.00;99240.59;4900744;29;20410;-93
2023/10/28 00:56:50;;;;;;;19.35;5.38;;;;;;;9.42;100.00;99232.03;4888212;29;20028;-85
2023/10/28 00:59:16;;;;;;;12.40;4.88;;;;;;;9.45;100.00;99230.72;4901273;29;20120;-89
2023/10/28 01:01:41;;;;;;;12.55;5.38;;;;;;;9.46;100.00;99230.47;4900054;29;20069;-89
2023/10/28 01:04:08;;;;;;;14.88;4.85;;;;;;;9.49;100.00;99229.97;4889000;29;20024;-89
2023/10/28 01:06:33;;;;;;;10.70;4.65;;;;;;;9.44;100.00;99223.75;4900773;29;20115;-91
2023/10/28 01:08:59;;;;;;;13.63;5.15;;;;;;;9.50;100.00;99233.44;4900233;29;20064;-89
2023/10/28 01:11:25;;;;;;;11.70;4.63;;;;;;;9.48;100.00;99232.88;4885727;29;20060;-87
2023/10/28 01:13:50;;;;;;;12.60;4.10;;;;;;;9.45;100.00;99230.72;4901044;29;20545;-91
2023/10/28 01:16:15;;;;;;;12.13;4.88;;;;;;;9.55;100.00;99236.22;4899687;29;20044;-91
2023/10/28 01:18:41;;;;;;;12.13;5.05;;;;;;;9.48;100.00;99223.03;4898936;29;20040;-89
2023/10/28 01:21:10;;;;;;;11.97;5.27;;;;;;;9.51;100.00;99229.72;4882066;29;20055;-89
2023/10/28 01:23:36;;;;;;;9.45;5.10;;;;;;;9.47;100.00;99233.94;4882078;29;20324;-88
2023/10/28 01:26:02;;;;;;;9.55;4.18;;;;;;;9.53;100.00;99241.75;4898396;29;20401;-91
2023/10/28 01:28:29;;;;;;;10.00;4.07;;;;;;;9.44;100.00;99216.56;4898237;29;20036;-88
2023/10/28 01:30:55;;;;;;;9.93;4.55;;;;;;;9.55;100.00;99234.34;4898214;29;20056;-90
2023/10/28 01:33:21;;;;;;;11.07;4.47;;;;;;;9.53;100.00;99228.41;4881349;29;20072;-90
2023/10/28 01:35:46;;;;;;;8.43;4.35;;;;;;;9.57;100.00;99245.59;4881338;29;20639;-89
2023/10/28 01:38:13;;;;;;;7.93;4.07;;;;;;;9.53;100.00;99233.75;4881295;29;20147;-89
2023/10/28 01:40:38;;;;;;;10.15;3.78;;;;;;;9.52;100.00;99229.47;4898264;29;20036;-93
2023/10/28 01:43:04;;;;;;;8.90;4.53;;;;;;;9.59;100.00;99238.13;4897818;29;20405;-95
2023/10/28 01:45:30;;;;;;;10.10;3.60;;;;;;;9.52;100.00;99220.66;4882045;29;20033;-93
2023/10/28 01:47:55;;;;;;;7.43;3.60;;;;;;;9.58;100.00;99236.53;4898423;29;20039;-92
2023/10/28 01:50:21;;;;;;;12.20;4.03;;;;;;;9.57;100.00;99244.78;4882172;29;20035;-89
2023/10/28 01:52:46;;;;;;;8.90;3.53;;;;;;;9.58;100.00;99233.03;4898489;29;20449;-93
2023/10/28 01:55:12;;;;;;;10.82;3.55;;;;;;;9.56;100.00;99230.63;4898254;29;20037;-91
2023/10/28 01:57:38;;;;;;;6.28;3.17;;;;;;;9.55;100.00;99234.34;4881318;29;20061;-89
2023/10/28 02:00:06;;;;;;;10.60;2.92;;;;;;;9.57;100.00;99234.91;4897833;29;20500;-87
2023/10/28 02:02:33;;;;;;;7.60;3.35;;;;;;;9.54;100.00;99230.06;4896774;29;20552;-88
2023/10/28 02:04:59;;;;;;;10.73;3.25;;;;;;;9.58;100.00;99235.72;4899171;29;20099;-90
2023/10/28 02:07:24;;;;;;;6.53;2.90;;;;;;;9.56;100.00;99227.94;4899408;29;20462;-91
2023/10/28 02:09:50;;;;;;;7.50;3.45;;;;;;;9.59;100.00;99235.47;4900237;29;20032;-90
2023/10/28 02:12:15;;;;;;;7.68;3.20;;;;;;;9.56;100.00;99224.47;4899747;29;20036;-90
2023/10/28 02:14:43;;;;;;;7.47;2.70;;;;;;;9.55;100.00;99218.34;4899069;29;20037;-90
2023/10/28 02:17:09;;;;;;;10.10;3.35;;;;;;;9.58;100.00;99231.19;4898085;29;20031;-92
2023/10/28 02:19:35;;;;;;;6.97;3.38;;;;;;;9.57;100.00;99229.56;4883029;29;20036;-90
2023/10/28 02:22:01;;;;;;;5.60;3.20;;;;;;;9.53;100.00;99232.94;4882883;29;20028;-88
2023/10/28 02:24:26;;;;;;;5.57;3.08;;;;;;;9.58;100.00;99233.84;4898074;29;20044;-90
2023/10/28 02:26:51;;;;;;;7.22;2.90;;;;;;;9.49;100.00;99226.50;4898651;29;20033;-90
2023/10/28 02:29:17;;;;;;;5.95;2.88;;;;;;;9.50;100.00;99236.91;4883318;29;20029;-90
2023/10/28 02:31:43;;;;;;;7.75;3.28;;;;;;;9.48;100.00;99232.88;4899680;29;20045;-90
2023/10/28 02:34:10;;;;;;;7.75;3.58;;;;;;;9.41;100.00;99219.72;4897083;29;20115;-90
2023/10/28 02:36:36;;;;;;;8.32;2.88;;;;;;;9.38;100.00;99219.41;4885283;29;20375;-90
2023/10/28 02:39:01;;;;;;;6.60;3.00;;;;;;;9.39;100.00;99231.69;4897910;29;20053;-89
2023/10/28 02:41:28;;;;;;;6.88;3.13;;;;;;;9.42;100.00;99234.69;4897131;29;20039;-88
2023/10/28 02:43:53;;;;;;;6.13;3.90;;;;;;;9.37;100.00;99225.81;4896977;29;20044;-88
2023/10/28 02:46:22;;;;;;;7.45;3.08;;;;;;;9.38;100.00;99240.75;4902191;29;20036;-91
2023/10/28 02:48:48;;;;;;;9.13;3.00;;;;;;;9.31;100.00;99222.28;4899420;29;20395;-90
2023/10/28 02:51:13;;;;;;;9.25;2.97;;;;;;;9.36;100.00;99235.69;4880348;29;20039;-87
2023/10/28 02:53:40;;;;;;;6.18;2.78;;;;;;;9.35;100.00;99242.06;4897525;29;20036;-90
2023/10/28 02:56:05;;;;;;;4.78;2.70;;;;;;;9.30;100.00;99239.31;4896970;29;20467;-88
2023/10/28 02:58:31;;;;;;;7.35;3.03;;;;;;;9.32;100.00;99247.88;4880138;29;20141;-88
2023/10/28 03:00:57;;;;;;;5.78;2.58;;;;;;;9.26;100.00;99240.88;4896269;29;20037;-88
2023/10/28 03:03:23;;;;;;;5.43;2.90;;;;;;;9.24;100.00;99226.94;4899729;29;20089;-90
2023/10/28 03:05:49;;;;;;;6.72;2.75;;;;;;;9.25;100.00;99244.56;4880467;29;20038;-93
2023/10/28 03:08:16;;;;;;;4.82;3.20;;;;;;;9.22;100.00;99232.53;4880542;29;20496;-91
2023/10/28 03:10:41;;;;;;;5.90;3.10;;;;;;;9.28;100.00;99252.09;4880730;29;20390;-94
2023/10/28 03:13:07;;;;;;;4.03;3.35;;;;;;;9.30;100.00;99244.66;4880299;29;20047;-91
2023/10/28 03:15:32;;;;;;;7.47;3.85;;;;;;;9.29;100.00;99237.72;4880254;29;20036;-91
2023/10/28 03:17:58;;;;;;;5.35;3.45;;;;;;;9.40;100.00;99252.00;4896833;29;20115;-87
2023/10/28 03:20:23;;;;;;;6.53;4.45;;;;;;;9.25;100.00;99231.22;4896707;29;20123;-90
2023/10/28 03:22:50;;;;;;;10.82;4.60;;;;;;;9.32;100.00;99251.38;4879917;29;20401;-91
2023/10/28 03:25:15;;;;;;;7.38;3.72;;;;;;;9.18;100.00;99231.41;4879820;29;20128;-91
2023/10/28 03:27:41;;;;;;;8.27;4.20;;;;;;;9.16;100.00;99243.38;4896602;29;20111;-89
2023/10/28 03:30:06;;;;;;;7.53;4.03;;;;;;;9.06;100.00;99237.91;4896608;29;20545;-92
2023/10/28 03:32:32;;;;;;;6.75;4.10;;;;;;;9.06;100.00;99248.56;4880166;29;20383;-88
2023/10/28 03:34:57;;;;;;;7.95;3.38;;;;;;;8.97;100.00;99248.16;4896441;29;20029;-88
2023/10/28 03:37:23;;;;;;;8.25;3.17;;;;;;;8.94;100.00;99246.75;4896484;29;20390;-90
2023/10/28 03:39:48;;;;;;;7.43;3.78;;;;;;;8.81;100.00;99241.78;4879545;29;20083;-89
2023/10/28 03:42:14;;;;;;;6.97;3.67;;;;;;;8.79;100.00;99243.88;4897929;29;20059;-90
2023/10/28 03:44:40;;;;;;;8.13;3.28;;;;;;;8.74;100.00;99240.31;4899934;29;20060;-91
2023/10/28 03:47:06;;;;;;;4.95;3.40;;;;;;;8.73;100.00;99236.84;4899826;29;20033;-91
2023/10/28 03:49:33;;;;;;;7.13;3.75;;;;;;;8.73;100.00;99236.03;4899751;29;20397;-90
2023/10/28 03:51:58;;;;;;;6.40;3.58;;;;;;;8.77;100.00;99237.97;4899791;29;20033;-88
2023/10/28 03:54:24;;;;;;;8.20;3.30;;;;;;;8.82;100.00;99238.06;4899797;29;20043;-89
2023/10/28 03:56:49;;;;;;;5.75;3.33;;;;;;;8.78;100.00;99236.94;4899654;29;20044;-89
2023/10/28 03:59:15;;;;;;;7.60;3.38;;;;;;;8.84;100.00;99240.47;4899736;29;20035;-90
2023/10/28 04:01:41;;;;;;;6.03;3.65;;;;;;;8.88;100.00;99253.06;4882630;29;20149;-90
2023/10/28 04:04:07;;;;;;;6.32;3.15;;;;;;;8.90;100.00;99240.31;4899626;29;20040;-88
2023/10/28 04:06:33;;;;;;;6.28;3.40;;;;;;;8.80;100.00;99224.16;4899914;29;20033;-89
2023/10/28 04:08:59;;;;;;;6.20;3.83;;;;;;;8.91;100.00;99246.44;4899531;29;20032;-90
2023/10/28 04:11:25;;;;;;;10.65;3.70;;;;;;;8.84;100.00;99225.28;4899513;29;20036;-90
2023/10/28 04:13:50;;;;;;;5.97;3.78;;;;;;;8.92;100.00;99237.41;4899633;29;20044;-89
2023/10/28 04:16:15;;;;;;;7.63;3.83;;;;;;;8.83;100.00;99209.53;4899890;29;20363;-88
2023/10/28 04:18:41;;;;;;;9.55;3.50;;;;;;;8.98;100.00;99225.78;4882463;29;20041;-88
2023/10/28 04:21:06;;;;;;;8.57;3.72;;;;;;;8.97;100.00;99240.97;4882647;29;20112;-85
2023/10/28 04:23:31;;;;;;;6.63;3.47;;;;;;;8.91;100.00;99225.94;4899112;29;20131;-89
2023/10/28 04:25:57;;;;;;;6.68;3.88;;;;;;;8.90;100.00;99226.97;4899150;29;20039;-90
2023/10/28 04:28:22;;;;;;;5.50;3.33;;;;;;;8.97;100.00;99214.31;4899161;29;20036;-86
2023/10/28 04:30:58;;;;;;;8.68;3.50;;;;;;;8.95;100.00;99219.06;4899387;29;20477;-90
2023/10/28 04:33:24;;;;;;;5.65;3.35;;;;;;;8.95;100.00;99210.25;4882404;29;20047;-92
2023/10/28 04:35:52;;;;;;;4.88;3.67;;;;;;;8.97;100.00;99213.50;4899301;29;20096;-92
2023/10/28 04:38:18;;;;;;;6.70;3.33;;;;;;;8.97;100.00;99219.66;4882301;29;20028;-91
2023/10/28 04:40:43;;;;;;;6.50;3.47;;;;;;;8.94;100.00;99214.78;4882178;29;20039;-88
2023/10/28 04:43:08;;;;;;;7.63;3.35;;;;;;;9.02;100.00;99218.09;4898930;29;20036;-89
2023/10/28 04:45:34;;;;;;;5.95;2.95;;;;;;;9.06;100.00;99222.72;4882316;29;20075;-90
2023/10/28 04:47:59;;;;;;;6.80;3.60;;;;;;;9.02;100.00;99216.25;4882023;29;20095;-90
2023/10/28 04:50:24;;;;;;;4.50;2.95;;;;;;;9.06;100.00;99221.91;4881948;29;20025;-90
2023/10/28 04:52:50;;;;;;;8.82;3.50;;;;;;;9.04;100.00;99224.81;4881947;29;20037;-89
2023/10/28 04:55:15;;;;;;;6.18;2.97;;;;;;;9.05;100.00;99212.28;4899120;29;20033;-90
2023/10/28 04:57:41;;;;;;;6.60;3.30;;;;;;;9.06;100.00;99217.38;4882559;29;20052;-88
2023/10/28 05:00:07;;;;;;;8.18;3.28;;;;;;;9.08;100.00;99211.78;4882283;29;20084;-91
2023/10/28 05:02:34;;;;;;;5.43;3.70;;;;;;;9.16;100.00;99208.72;4883618;29;20037;-93
2023/10/28 05:05:01;;;;;;;4.95;3.17;;;;;;;9.09;100.00;99205.41;4883533;29;20032;-91
2023/10/28 05:07:26;;;;;;;6.97;3.60;;;;;;;9.15;100.00;99210.56;4898942;29;20040;-91
2023/10/28 05:09:51;;;;;;;9.07;3.60;;;;;;;9.11;100.00;99203.31;4881848;29;20061;-90
2023/10/28 05:12:18;;;;;;;9.15;3.78;;;;;;;9.07;100.00;99203.00;4881673;29;20036;-89
2023/10/28 05:14:44;;;;;;;5.75;3.25;;;;;;;9.08;100.00;99199.28;4883528;29;20115;-91
2023/10/28 05:17:10;;;;;;;7.90;3.28;;;;;;;9.18;100.00;99206.59;4902777;29;20092;-91
2023/10/28 05:19:36;;;;;;;5.65;3.60;;;;;;;9.20;100.00;99209.81;4898952;29;20028;-88
2023/10/28 05:22:03;;;;;;;7.05;3.40;;;;;;;9.19;100.00;99203.69;4898881;29;20657;-89
2023/10/28 05:24:29;;;;;;;5.35;3.50;;;;;;;9.17;100.00;99200.47;4898503;29;20028;-92
2023/10/28 05:26:55;;;;;;;10.30;3.45;;;;;;;9.19;100.00;99205.53;4897638;29;20084;-92
2023/10/28 05:29:20;;;;;;;5.57;3.17;;;;;;;9.15;100.00;99199.09;4898774;29;20104;-90
2023/10/28 05:31:46;;;;;;;6.65;3.17;;;;;;;9.12;100.00;99207.59;4881333;29;20136;-90
2023/10/28 05:34:12;;;;;;;6.85;3.50;;;;;;;9.20;100.00;99207.16;4898121;29;20438;-92
2023/10/28 05:36:37;;;;;;;6.85;3.40;;;;;;;9.14;100.00;99194.81;4898157;29;20040;-90
2023/10/28 05:39:03;;;;;;;9.23;3.38;;;;;;;9.13;100.00;99204.66;4898059;29;20067;-91
2023/10/28 05:41:29;;;;;;;6.57;3.08;;;;;;;9.14;100.00;99210.81;4897998;29;20124;-91
2023/10/28 05:43:54;;;;;;;6.90;3.08;;;;;;;9.09;100.00;99198.22;4881083;29;20032;-89
2023/10/28 05:46:22;;;;;;;10.75;3.25;;;;;;;9.07;100.00;99192.31;4898001;29;20064;-88
2023/10/28 05:48:48;;;;;;;6.30;3.80;;;;;;;9.08;100.00;99201.94;4881112;29;20083;-88
2023/10/28 05:51:13;;;;;;;6.88;3.08;;;;;;;9.09;100.00;99205.41;4897964;29;20040;-87
2023/10/28 05:53:39;;;;;;;6.13;3.58;;;;;;;9.15;100.00;99220.41;4897909;29;20115;-87
2023/10/28 05:56:05;;;;;;;7.18;3.15;;;;;;;9.07;100.00;99212.84;4897746;29;20536;-87
2023/10/28 05:58:30;;;;;;;5.85;2.92;;;;;;;9.14;100.00;99216.94;4897935;29;20040;-87
2023/10/28 06:00:59;;;;;;;6.07;2.85;;;;;;;9.16;100.00;99227.38;4881084;29;20077;-88
2023/10/28 06:03:24;;;;;;;7.70;3.65;;;;;;;9.16;100.00;99230.03;4897562;29;20043;-89
2023/10/28 06:05:49;;;;;;;7.75;2.78;;;;;;;9.20;100.00;99228.50;4880875;29;20028;-89
2023/10/28 06:08:15;;;;;;;8.27;3.10;;;;;;;9.13;100.00;99223.34;4881190;29;20509;-88
2023/10/28 06:10:40;;;;;;;5.60;3.35;;;;;;;9.12;100.00;99220.91;4880590;29;20123;-86
2023/10/28 06:13:08;;;;;;;6.47;3.13;;;;;;;9.22;100.00;99237.84;4897639;29;20036;-87
2023/10/28 06:15:33;;;;;;;7.47;3.15;;;;;;;9.18;100.00;99220.75;4897608;29;20048;-87
2023/10/28 06:17:59;;;;;;;7.57;3.10;;;;;;;9.26;100.00;99240.88;4880674;29;20032;-86
2023/10/28 06:20:24;;;;;;;7.47;3.40;;;;;;;9.21;100.00;99230.91;4881307;29;20065;-84
2023/10/28 06:22:50;;;;;;;7.00;3.35;;;;;;;9.21;100.00;99236.25;4897933;29;20351;-87
2023/10/28 06:25:15;;;;;;;6.25;3.20;;;;;;;9.17;100.00;99237.78;4898057;29;20048;-87
2023/10/28 06:27:40;;;;;;;5.28;2.83;;;;;;;9.10;100.00;99226.50;4898002;29;20108;-86
2023/10/28 06:30:07;;;;;;;8.95;3.10;;;;;;;9.19;100.00;99234.88;4898109;29;20541;-86
2023/10/28 06:32:32;;;;;;;6.90;3.72;;;;;;;9.26;100.00;99246.22;4880944;29;20036;-88
2023/10/28 06:34:58;;;;;;;5.43;2.97;;;;;;;9.18;100.00;99236.75;4897913;29;20036;-87
2023/10/28 06:37:23;;;;;;;7.07;2.80;;;;;;;9.25;100.00;99233.91;4897781;29;20044;-88
2023/10/28 06:39:49;;;;;;;6.07;2.92;;;;;;;9.27;100.00;99239.81;4897813;29;20067;-87
2023/10/28 06:42:14;;;;;;;7.40;3.30;;;;;;;9.30;100.00;99239.31;4880623;29;20123;-88
2023/10/28 06:44:39;;;;;;;7.57;3.60;;;;;;;9.27;100.00;99242.50;4881019;29;20683;-87
2023/10/28 06:47:05;;;;;;;5.07;3.30;;;;;;;9.29;100.00;99245.72;4882654;29;20029;-93
2023/10/28 06:49:31;;;;;;;7.22;3.00;;;;;;;9.31;100.00;99240.94;4897897;29;20040;-95
2023/10/28 06:51:57;;;;;;;7.60;3.50;;;;;;;9.29;100.00;99227.84;4881919;29;20032;-88
2023/10/28 06:54:22;;;;;;;7.38;3.58;;;;;;;9.33;100.00;99228.16;4880759;29;20029;-87
2023/10/28 06:56:48;;;;;;;9.93;3.60;;;;;;;9.40;100.00;99234.13;4897736;29;20032;-86
2023/10/28 06:59:13;;;;;;;6.72;2.90;;;;;;;9.41;100.00;99227.75;4880801;29;20033;-86
2023/10/28 07:01:39;;;;;;;6.65;3.05;;;;;;;9.42;100.00;99234.69;4880429;29;20128;-86
2023/10/28 07:04:05;;;;;;;10.75;2.90;;;;;;;9.41;100.00;99227.75;4880525;29;20044;-90
2023/10/28 07:06:31;;;;;;;6.03;2.50;;;;;;;9.56;100.00;99243.97;4880929;29;20036;-88
2023/10/28 07:08:57;;;;;;;6.35;3.13;;;;;;;9.52;100.00;99244.69;4880989;29;20028;-87
2023/10/28 07:11:23;;;;;;;6.40;2.80;;;;;;;9.52;100.00;99244.69;4880414;29;20541;-88
2023/10/28 07:13:48;;;;;;;5.00;2.92;;;;;;;9.56;100.00;99241.28;4880530;29;20036;-90
2023/10/28 07:16:17;;;;;;;5.57;2.78;;;;;;;9.57;100.00;99234.09;4879188;29;20478;-88
2023/10/28 07:18:43;;;;;;;6.82;3.35;;;;;;;9.58;100.00;99247.19;4897213;29;20138;-88
2023/10/28 07:21:08;;;;;;;7.40;3.03;;;;;;;9.65;100.00;99241.66;4897553;29;20541;-89
2023/10/28 07:23:34;;;;;;;4.75;2.80;;;;;;;9.69;100.00;99249.97;4880615;29;20040;-89
2023/10/28 07:26:01;;;;;;;10.18;3.97;;;;;;;9.75;100.00;99257.81;4897152;29;20024;-88
2023/10/28 07:28:33;;;;;;;10.10;2.90;;;;;;;9.83;100.00;99260.06;4880247;29;20434;-89
2023/10/28 07:30:59;;;;;;;6.07;3.00;;;;;;;9.89;100.00;99256.41;4897435;29;20033;-90
2023/10/28 07:33:24;;;;;;;8.90;2.80;;;;;;;9.96;100.00;99260.72;4880305;29;20300;-90
2023/10/28 07:35:52;;;;;;;7.22;2.85;;;;;;;9.94;100.00;99260.97;4897291;29;20138;-90
2023/10/28 07:38:18;;;;;;;6.45;3.03;;;;;;;9.99;100.00;99253.03;4880355;29;20124;-89
2023/10/28 07:40:44;;;;;;;10.20;3.05;;;;;;;10.06;100.00;99276.88;4881123;29;20084;-91
2023/10/28 07:43:14;;;;;;;9.77;2.90;;;;;;;10.15;100.00;99260.19;4900515;29;20502;-89
2023/10/28 07:45:40;;;;;;;8.02;3.40;;;;;;;10.22;100.00;99266.16;4901205;29;20021;-88
2023/10/28 07:48:06;;;;;;;6.10;3.08;;;;;;;10.36;100.00;99273.75;4898048;29;20168;-90
2023/10/28 07:50:39;;;;;;;8.20;2.83;;;;;;;10.42;100.00;99267.44;4881599;29;20021;-91
2023/10/28 07:53:05;;;;;;;7.72;2.85;;;;;;;10.43;100.00;99269.84;4898417;29;20048;-93
2023/10/28 07:55:31;;;;;;;5.50;2.33;;;;;;;10.52;100.00;99273.69;4882748;29;20037;-91
2023/10/28 07:57:57;;;;;;;4.50;2.72;;;;;;;10.58;100.00;99284.41;4880362;29;20549;-92
2023/10/28 08:00:23;;;;;;;7.03;2.40;;;;;;;10.57;100.00;99280.94;4898102;29;20029;-90
2023/10/28 08:02:49;;;;;;;6.90;2.35;;;;;;;10.61;100.00;99286.59;4896963;29;20092;-91
2023/10/28 08:05:14;;;;;;;5.78;2.40;;;;;;;10.66;100.00;99295.47;4897940;29;20037;-93
2023/10/28 08:07:40;;;;;;;6.15;2.40;;;;;;;10.71;100.00;99290.19;4882351;29;20024;-93
2023/10/28 08:10:06;;;;;;;6.85;2.80;;;;;;;10.79;100.00;99305.75;4898001;29;20040;-93
2023/10/28 08:12:32;;;;;;;10.02;2.90;;;;;;;10.82;100.00;99305.25;4897011;29;20552;-92
2023/10/28 08:15:04;;;;;;;6.43;2.90;;;;;;;10.84;100.00;99302.31;4880917;29;20051;-88
2023/10/28 08:17:31;;;;;;;9.40;2.88;;;;;;;10.92;100.00;99303.72;4899038;29;20525;-90
2023/10/28 08:19:57;;;;;;;5.70;2.38;;;;;;;10.96;100.00;99288.78;4897745;29;20025;-88
2023/10/28 08:22:24;;;;;;;6.88;2.78;;;;;;;10.80;100.00;99256.56;4898266;29;20433;-90
2023/10/28 08:24:49;;;;;;;6.75;2.53;;;;;;;11.02;100.00;99285.91;4896982;29;20037;-91
2023/10/28 08:27:15;;;;;;;6.18;2.40;;;;;;;11.13;100.00;99300.97;4898680;29;20375;-95
2023/10/28 08:29:41;;;;;;;7.47;2.80;;;;;;;10.88;100.00;99273.19;4901228;29;20081;-93
2023/10/28 08:32:07;;;;;;;10.52;3.10;;;;;;;11.01;100.00;99302.22;4884798;29;20048;-93
2023/10/28 08:34:33;;;;;;;9.18;2.95;;;;;;;11.12;100.00;99318.09;4900340;29;20394;-93
2023/10/28 08:36:59;;;;;;;4.85;2.40;;;;;;;11.24;100.00;99328.59;4884581;29;20210;-93
2023/10/28 08:39:25;;;;;;;6.07;2.47;;;;;;;11.23;100.00;99321.63;4884493;29;20115;-93
2023/10/28 08:41:51;;;;;;;8.70;2.88;;;;;;;11.32;100.00;99324.66;4883091;29;20124;-89
2023/10/28 08:44:27;;;;;;;8.57;2.63;;;;;;;11.27;100.00;99322.72;4899911;29;20115;-86
2023/10/28 08:46:53;;;;;;;6.65;3.33;;;;;;;11.41;100.00;99323.13;4883178;29;20029;-92
2023/10/28 08:49:21;;;;;;;5.88;2.20;;;;;;;11.51;100.00;99317.03;4900945;29;20088;-94
2023/10/28 08:51:51;;;;;;;5.55;2.50;;;;;;;11.47;100.00;99319.41;4884317;29;20029;-86
2023/10/28 08:54:16;;;;;;;6.43;2.88;;;;;;;11.51;100.00;99312.47;4902634;29;20037;-93
2023/10/28 08:56:46;;;;;;;6.90;2.60;;;;;;;11.75;100.00;99312.91;4903974;29;20096;-88
2023/10/28 08:59:11;;;;;;;8.38;2.55;;;;;;;11.96;100.00;99337.97;4900562;29;20037;-93
2023/10/28 09:01:37;;;;;;;7.43;2.60;;;;;;;12.04;100.00;99327.53;4900528;29;20032;-93
2023/10/28 09:04:04;;;;;;;5.80;2.47;;;;;;;12.02;100.00;99324.31;4900399;29;20040;-93
2023/10/28 09:06:30;;;;;;;6.40;2.40;;;;;;;12.15;100.00;99343.69;4883328;29;20028;-90
2023/10/28 09:08:57;;;;;;;6.85;2.60;;;;;;;12.20;100.00;99338.34;4882948;29;20036;-94
2023/10/28 09:11:23;;;;;;;8.73;3.05;;;;;;;12.21;100.00;99338.09;4883810;29;20144;-95
2023/10/28 09:13:48;;;;;;;8.95;2.78;;;;;;;12.31;100.00;99362.25;4885100;29;20164;-96
2023/10/28 09:16:14;;;;;;;9.48;2.92;;;;;;;12.34;100.00;99350.19;4902789;29;20052;-95
2023/10/28 09:18:40;;;;;;;4.43;2.13;;;;;;;12.40;100.00;99347.25;4900719;29;20096;-93
2023/10/28 09:21:09;;;;;;;7.90;2.30;;;;;;;12.76;100.00;99346.56;4900146;29;20084;-91
2023/10/28 09:23:43;;;;;;;8.93;2.70;;;;;;;13.04;100.00;99351.44;4900895;29;20473;-94
2023/10/28 09:29:32;;;;;;;8.40;2.35;;;;;;;12.89;100.00;99319.22;4900217;29;20068;-93
2023/10/28 10:13:06;;;;;;;6.47;2.33;;;;;;;15.19;100.00;99339.78;4751063;30;20089;-89
2023/10/28 10:22:36;;;;;;;5.63;2.10;;;;;;;14.85;100.00;99369.38;4786809;29;20046;-85
2023/10/28 10:25:31;;;;;;;8.35;2.47;;;;;;;14.39;100.00;99368.75;4787430;29;20042;-87
2023/10/28 10:29:22;;;;;;;;;;;;;;;;;;;;;
2023/10/28 12:23:16;;;;;;;14.95;4.00;;;;;;;14.96;100.00;99321.66;4514272;27;20053;-81
2023/10/28 12:25:41;;;;;;;11.30;3.78;;;;;;;15.15;100.00;99353.00;4880722;29;20043;-80
2023/10/28 12:28:10;;;;;;;16.30;3.95;;;;;;;15.38;100.00;99372.25;4899761;29;20104;-79
2023/10/28 12:30:38;;;;;;;10.10;3.45;;;;;;;16.02;100.00;99379.22;4898665;29;20055;-82
2023/10/28 12:33:03;;;;;;;9.85;3.83;;;;;;;16.41;100.00;99366.34;4898652;29;20036;-82
2023/10/28 12:35:28;;;;;;;16.63;3.78;;;;;;;16.15;100.00;99343.47;4899940;29;20037;-80
2023/10/28 12:37:54;;;;;;;12.02;3.17;;;;;;;16.27;100.00;99372.75;4899767;29;20036;-81
2023/10/28 12:40:19;;;;;;;12.10;3.13;;;;;;;16.47;100.00;99363.59;4883099;29;20123;-82
2023/10/28 12:42:45;;;;;;;9.23;3.22;;;;;;;16.60;100.00;99381.78;4882904;29;20025;-80
2023/10/28 12:51:56;;;;;;;12.40;3.30;;;;;;;16.01;100.00;99378.41;4899985;29;20585;-82
2023/10/28 12:54:22;;;;;;;11.52;3.45;;;;;;;16.22;100.00;99373.63;4898348;29;20032;-81
2023/10/28 12:56:47;;;;;;;9.93;3.63;;;;;;;16.06;100.00;99388.34;4899585;29;20362;-82
2023/10/28 12:59:12;;;;;;;12.52;3.50;;;;;;;16.02;100.00;99395.41;4899721;29;20469;-82
2023/10/28 13:01:38;;;;;;;9.55;2.75;;;;;;;15.83;100.00;99400.69;4898289;29;20031;-81
2023/10/28 13:04:04;;;;;;;14.05;3.22;;;;;;;15.18;100.00;99397.41;4898053;29;20028;-83
2023/10/28 13:06:32;;;;;;;12.93;3.63;;;;;;;14.68;100.00;99387.75;4882766;29;20124;-81
2023/10/28 13:08:57;;;;;;;14.52;3.60;;;;;;;14.40;100.00;99395.34;4882573;29;20033;-81
2023/10/28 13:11:23;;;;;;;13.38;3.00;;;;;;;14.62;100.00;99383.47;4882512;29;20055;-82
2023/10/28 13:13:48;;;;;;;11.95;3.60;;;;;;;14.74;100.00;99387.44;4898468;29;20114;-83
2023/10/28 13:16:13;;;;;;;8.52;3.03;;;;;;;14.54;100.00;99388.34;4897482;29;20068;-82
2023/10/28 13:18:39;;;;;;;12.45;4.35;;;;;;;14.39;100.00;99385.69;4897858;29;20079;-82
2023/10/28 13:21:04;;;;;;;11.20;3.33;;;;;;;14.66;100.00;99377.25;4898076;29;20047;-82
2023/10/28 13:23:30;;;;;;;15.60;3.40;;;;;;;15.42;100.00;99384.06;4899048;29;20550;-83
2023/10/28 13:25:55;;;;;;;13.07;3.55;;;;;;;16.47;100.00;99372.47;4899368;29;20041;-82
2023/10/28 13:28:21;;;;;;;12.65;3.15;;;;;;;16.82;100.00;99375.88;4897828;29;20466;-82
2023/10/28 13:30:46;;;;;;;9.32;3.00;;;;;;;16.48;100.00;99368.72;4898091;29;20029;-81
2023/10/28 13:33:12;;;;;;;10.48;3.75;;;;;;;15.80;100.00;99380.50;4897656;29;20037;-82
2023/10/28 13:35:38;;;;;;;12.10;2.92;;;;;;;15.24;100.00;99382.03;4899001;29;20463;-82
2023/10/28 13:38:04;;;;;;;9.98;3.03;;;;;;;14.72;100.00;99369.97;4898855;29;20028;-81
2023/10/28 13:40:30;;;;;;;12.35;3.45;;;;;;;14.44;100.00;99372.25;4897532;29;20024;-81
2023/10/28 13:42:57;;;;;;;12.57;3.50;;;;;;;14.35;100.00;99371.19;4898766;29;20039;-80
2023/10/28 13:45:22;;;;;;;14.07;4.28;;;;;;;14.25;100.00;99376.59;4898703;29;20037;-80
2023/10/28 13:47:50;;;;;;;10.40;3.60;;;;;;;14.23;100.00;99376.06;4898903;29;20032;-80
2023/10/28 13:50:16;;;;;;;14.27;3.47;;;;;;;14.20;100.00;99371.25;4881835;29;20037;-80
2023/10/28 13:53:31;;;;;;;11.65;2.78;;;;;;;14.22;100.00;99377.16;4898707;29;20032;-80
2023/10/28 13:56:20;;;;;;;14.82;3.35;;;;;;;13.84;100.00;99349.81;4897529;29;20064;-81
2023/10/28 13:58:46;;;;;;;10.48;3.50;;;;;;;13.67;100.00;99330.53;4897559;29;20047;-83
2023/10/28 14:01:12;;;;;;;10.25;3.22;;;;;;;13.92;100.00;99370.78;4898591;29;20036;-83
2023/10/28 14:03:46;;;;;;;11.35;3.88;;;;;;;13.94;100.00;99381.25;4898135;29;20040;-84
2023/10/28 14:06:12;;;;;;;9.93;3.92;;;;;;;14.00;100.00;99363.22;4881781;29;20029;-84
2023/10/28 14:08:41;;;;;;;9.88;2.95;;;;;;;14.08;100.00;99365.34;4898563;29;20059;-81
2023/10/28 14:11:07;;;;;;;10.73;2.92;;;;;;;14.03;100.00;99358.13;4898406;29;20060;-84
2023/10/28 14:13:33;;;;;;;15.30;4.10;;;;;;;14.05;100.00;99376.66;4896981;29;20040;-82
2023/10/28 14:15:59;;;;;;;8.73;3.58;;;;;;;13.89;100.00;99373.22;4898166;29;20033;-81